<?xml version="1.0" encoding="UTF-8" standalone="no" ?>
<gpx xmlns="http://www.topografix.com/GPX/1/1" xmlns:xsi="http://www.w3.org/2001/XMLSchema-instance" xsi:schemaLocation="http://www.topografix.com/GPX/1/1 http://www.topografix.com/GPX/1/1/gpx.xsd" version="1.1" creator="VisuGPX - https://www.visugpx.com">
  <metadata>
    <name>Montflanquin Gravel</name>
    <desc><![CDATA[Hors asphalte gravel OK (testé avec Diverge 4, pneus 50mm)]]></desc>
  </metadata>
  <wpt lat="44.5662" lon="0.73317">
    <ele>120.6</ele>
    <name><![CDATA[David haut/bas]]></name>
  </wpt>
  <wpt lat="44.55013" lon="0.85946">
    <ele>126.4</ele>
  </wpt>
  <trk>
    <name><![CDATA[Montflanquin Gravel_22]]></name>
    <trkseg>
      <trkpt lat="44.55297" lon="0.85073">
        <ele>126.4</ele>
        <time>2026-08-23T10:15:38Z</time>
      </trkpt>
      <trkpt lat="44.55305" lon="0.8509">
        <ele>126</ele>
        <time>2026-08-23T10:15:42Z</time>
      </trkpt>
      <trkpt lat="44.55346" lon="0.85143">
        <ele>128.8</ele>
        <time>2026-08-23T10:15:58Z</time>
      </trkpt>
      <trkpt lat="44.55364" lon="0.852">
        <ele>133</ele>
        <time>2026-08-23T10:16:14Z</time>
      </trkpt>
      <trkpt lat="44.55375" lon="0.85264">
        <ele>135.2</ele>
        <time>2026-08-23T10:16:30Z</time>
      </trkpt>
      <trkpt lat="44.55377" lon="0.85387">
        <ele>142.4</ele>
        <time>2026-08-23T10:17:02Z</time>
      </trkpt>
      <trkpt lat="44.55369" lon="0.85558">
        <ele>148.6</ele>
        <time>2026-08-23T10:17:42Z</time>
      </trkpt>
      <trkpt lat="44.55371" lon="0.85589">
        <ele>147.6</ele>
        <time>2026-08-23T10:17:46Z</time>
      </trkpt>
      <trkpt lat="44.55382" lon="0.85633">
        <ele>144.8</ele>
        <time>2026-08-23T10:17:54Z</time>
      </trkpt>
      <trkpt lat="44.55371" lon="0.85663">
        <ele>143.6</ele>
        <time>2026-08-23T10:18:02Z</time>
      </trkpt>
      <trkpt lat="44.55282" lon="0.85739">
        <ele>134</ele>
        <time>2026-08-23T10:18:26Z</time>
      </trkpt>
      <trkpt lat="44.55268" lon="0.85746">
        <ele>133.4</ele>
        <time>2026-08-23T10:18:30Z</time>
      </trkpt>
      <trkpt lat="44.55251" lon="0.85748">
        <ele>132.4</ele>
        <time>2026-08-23T10:18:34Z</time>
      </trkpt>
      <trkpt lat="44.55235" lon="0.8576">
        <ele>131.4</ele>
        <time>2026-08-23T10:18:38Z</time>
      </trkpt>
      <trkpt lat="44.55166" lon="0.85867">
        <ele>129</ele>
        <time>2026-08-23T10:19:10Z</time>
      </trkpt>
      <trkpt lat="44.55149" lon="0.85878">
        <ele>129.6</ele>
        <time>2026-08-23T10:19:18Z</time>
      </trkpt>
      <trkpt lat="44.55125" lon="0.85877">
        <ele>129.4</ele>
        <time>2026-08-23T10:19:26Z</time>
      </trkpt>
      <trkpt lat="44.55096" lon="0.85893">
        <ele>129.6</ele>
        <time>2026-08-23T10:19:42Z</time>
      </trkpt>
      <trkpt lat="44.5506" lon="0.85899">
        <ele>128.8</ele>
        <time>2026-08-23T10:19:58Z</time>
      </trkpt>
      <trkpt lat="44.5503" lon="0.85909">
        <ele>129.8</ele>
        <time>2026-08-23T10:20:14Z</time>
      </trkpt>
      <trkpt lat="44.55004" lon="0.85914">
        <ele>129.6</ele>
        <time>2026-08-23T10:20:26Z</time>
      </trkpt>
      <trkpt lat="44.54995" lon="0.85921">
        <ele>129.6</ele>
        <time>2026-08-23T10:20:30Z</time>
      </trkpt>
      <trkpt lat="44.54997" lon="0.85942">
        <ele>130.6</ele>
        <time>2026-08-23T10:20:38Z</time>
      </trkpt>
      <trkpt lat="44.5501" lon="0.85973">
        <ele>131.6</ele>
        <time>2026-08-23T10:20:53Z</time>
        <extensions>
          <visugpx:TrkExtension xmlns:visugpx="https://www.visugpx.com/editgpx/">
            <visugpx:node>1</visugpx:node>
            </visugpx:TrkExtension>
        </extensions>
      </trkpt>
    </trkseg>
  </trk>
</gpx>